Time;durP1;ratioP1;P1;durP2;ratioP2;P2;SDS_P1;SDS_P2;PMS_P1;PMS_P2;Temp;Humidity;BMP_temperature;BMP_pressure;BME280_temperature;BME280_humidity;BME280_pressure;Samples;Min_cycle;Max_cycle;Signal;HPM_P1;HPM_P2
2022/07/22 00:00:13;;;;;;;21.02;19.25;;;;;;;20.57;80.72;101575.34;6187387;28;20319;-69
2022/07/22 00:03:34;;;;;;;20.40;18.80;;;;;;;20.58;81.25;101581.69;6189514;28;20237;-69
2022/07/22 00:06:55;;;;;;;18.50;17.00;;;;;;;20.80;80.17;101586.28;6186675;28;20488;-70
2022/07/22 00:10:17;;;;;;;18.90;17.40;;;;;;;20.83;80.32;101588.66;6189906;28;20234;-70
2022/07/22 00:13:38;;;;;;;18.05;16.45;;;;;;;20.71;80.42;101585.50;6188653;28;20222;-68
2022/07/22 00:16:59;;;;;;;16.77;15.60;;;;;;;20.57;80.72;101590.94;6183548;28;20225;-69
2022/07/22 00:20:20;;;;;;;17.13;15.80;;;;;;;20.64;80.46;101590.03;6188164;28;20234;-69
2022/07/22 00:23:41;;;;;;;16.55;15.25;;;;;;;20.68;80.07;101591.38;6191825;28;20226;-69
2022/07/22 00:27:04;;;;;;;16.17;14.70;;;;;;;20.67;80.39;101592.38;6182917;28;20239;-69
2022/07/22 00:30:24;;;;;;;20.15;18.30;;;;;;;20.27;81.74;101600.09;6190013;28;20506;-70
2022/07/22 00:33:46;;;;;;;21.52;19.52;;;;;;;20.02;81.65;101601.22;6189736;28;20250;-69
2022/07/22 00:37:07;;;;;;;22.17;20.00;;;;;;;19.92;81.77;101609.69;6186789;28;20234;-69
2022/07/22 00:40:27;;;;;;;22.23;19.92;;;;;;;20.02;81.23;101613.03;6187187;28;20257;-69
2022/07/22 00:43:52;;;;;;;20.33;18.35;;;;;;;20.06;81.12;101613.53;6202499;28;20238;-68
2022/07/22 00:47:12;;;;;;;19.35;17.45;;;;;;;20.06;80.55;101616.25;6192985;28;20627;-68
2022/07/22 00:50:34;;;;;;;22.58;19.45;;;;;;;19.88;81.13;101630.19;6187597;28;20329;-69
2022/07/22 00:53:56;;;;;;;15.85;14.30;;;;;;;19.79;80.22;101620.34;6187483;28;20233;-68
2022/07/22 00:57:17;;;;;;;11.32;10.23;;;;;;;19.67;80.47;101625.31;6186892;28;20234;-70
2022/07/22 01:00:39;;;;;;;9.52;8.73;;;;;;;19.44;81.21;101637.22;6188737;28;20233;-69
2022/07/22 01:04:00;;;;;;;7.70;6.90;;;;;;;19.19;81.41;101632.78;6187244;28;20293;-69
2022/07/22 01:07:21;;;;;;;5.50;5.10;;;;;;;19.41;80.29;101634.81;6184697;28;20315;-69
2022/07/22 01:10:45;;;;;;;5.72;4.45;;;;;;;19.39;80.45;101628.66;6187002;28;20239;-69
2022/07/22 01:14:09;;;;;;;6.85;4.35;;;;;;;19.49;80.99;101637.53;6187246;28;20245;-68
2022/07/22 01:17:31;;;;;;;3.88;3.30;;;;;;;19.54;80.19;101635.13;6183762;28;20234;-68
2022/07/22 01:20:57;;;;;;;3.83;3.53;;;;;;;19.11;81.41;101634.50;6174165;28;20241;-68
2022/07/22 01:24:18;;;;;;;4.50;2.35;;;;;;;19.06;81.44;101642.38;6189279;28;20226;-69
2022/07/22 01:27:39;;;;;;;2.30;2.00;;;;;;;18.99;81.26;101640.50;6187594;28;20221;-69
2022/07/22 01:31:00;;;;;;;3.17;2.20;;;;;;;19.07;81.00;101652.28;6203903;28;20229;-69
2022/07/22 01:34:22;;;;;;;2.42;2.30;;;;;;;19.01;80.65;101650.25;6187516;28;20221;-68
2022/07/22 01:37:44;;;;;;;3.30;3.00;;;;;;;18.97;79.53;101654.34;6200154;28;20627;-69
2022/07/22 01:41:06;;;;;;;2.95;2.60;;;;;;;18.98;79.17;101655.19;6195014;28;20237;-68
2022/07/22 01:44:27;;;;;;;4.00;3.15;;;;;;;18.75;79.54;101665.97;6186809;28;20234;-68
2022/07/22 01:47:48;;;;;;;3.72;3.15;;;;;;;18.85;78.93;101657.59;6184225;28;20233;-68
2022/07/22 01:51:09;;;;;;;4.88;4.10;;;;;;;18.79;79.09;101666.47;6185295;28;20556;-68
2022/07/22 01:54:36;;;;;;;4.55;4.18;;;;;;;18.54;79.88;101670.19;6182497;28;20233;-69
2022/07/22 01:57:57;;;;;;;5.55;4.93;;;;;;;18.50;79.27;101672.41;6195272;28;20968;-68
2022/07/22 02:01:24;;;;;;;7.30;6.03;;;;;;;18.51;78.98;101675.97;6198281;28;20242;-69
2022/07/22 02:04:45;;;;;;;6.20;5.30;;;;;;;18.45;80.11;101676.66;6202216;28;20218;-68
2022/07/22 02:08:08;;;;;;;7.60;6.10;;;;;;;18.48;79.67;101677.19;6199342;28;20693;-68
2022/07/22 02:11:49;;;;;;;7.90;5.50;;;;;;;18.44;79.13;101675.78;6184044;28;20234;-69
2022/07/22 02:15:11;;;;;;;7.07;5.72;;;;;;;18.17;78.71;101676.03;6179562;28;20237;-68
2022/07/22 02:18:33;;;;;;;9.65;5.25;;;;;;;18.15;79.84;101683.53;6198766;28;20262;-69
2022/07/22 02:21:54;;;;;;;5.90;5.07;;;;;;;18.16;79.66;101687.97;6199560;28;20248;-69
2022/07/22 02:25:18;;;;;;;5.57;4.55;;;;;;;18.44;79.07;101685.88;6185385;28;20494;-69
2022/07/22 02:28:40;;;;;;;5.85;4.70;;;;;;;18.31;78.24;101687.16;6199485;28;20233;-69
2022/07/22 02:32:01;;;;;;;7.03;4.47;;;;;;;18.17;78.40;101687.81;6199686;28;20252;-68
2022/07/22 02:35:23;;;;;;;9.15;4.00;;;;;;;18.30;78.73;101685.47;6186425;28;20221;-69
2022/07/22 02:38:43;;;;;;;9.65;3.90;;;;;;;18.26;78.44;101694.16;6184325;28;20233;-68
2022/07/22 02:42:04;;;;;;;6.47;3.55;;;;;;;18.32;77.78;101691.63;6201128;28;20240;-69
2022/07/22 02:45:27;;;;;;;7.50;4.75;;;;;;;18.38;78.08;101695.53;6199203;28;20234;-68
2022/07/22 02:48:48;;;;;;;5.28;3.80;;;;;;;18.27;78.25;101693.16;6200517;28;20241;-68
2022/07/22 02:52:12;;;;;;;6.07;3.72;;;;;;;18.35;78.22;101704.94;6180554;28;20249;-69
2022/07/22 02:55:33;;;;;;;5.50;2.92;;;;;;;18.37;77.84;101712.97;6188673;28;20238;-68
2022/07/22 02:58:56;;;;;;;9.43;3.20;;;;;;;18.02;78.69;101707.72;6191070;28;20525;-68
2022/07/22 03:02:18;;;;;;;6.32;3.47;;;;;;;17.83;79.29;101713.41;6187884;28;20238;-69
2022/07/22 03:05:39;;;;;;;7.93;2.92;;;;;;;17.98;78.83;101711.78;6191997;28;20229;-68
2022/07/22 03:09:14;;;;;;;10.52;8.82;;;;;;;18.22;77.94;101714.63;6190740;28;20603;-68
2022/07/22 03:12:38;;;;;;;9.48;4.70;;;;;;;18.19;78.25;101709.50;6188170;28;20234;-69
2022/07/22 03:15:59;;;;;;;9.20;2.80;;;;;;;17.91;78.57;101718.91;6189899;28;20254;-69
2022/07/22 03:19:22;;;;;;;7.93;2.70;;;;;;;18.00;78.42;101720.66;6203477;28;20225;-68
2022/07/22 03:22:46;;;;;;;5.57;2.63;;;;;;;18.07;78.11;101714.38;6192810;28;20566;-68
2022/07/22 03:26:07;;;;;;;6.78;3.22;;;;;;;18.13;78.13;101721.91;6185864;28;20233;-69
2022/07/22 03:29:28;;;;;;;9.95;2.80;;;;;;;18.09;78.98;101714.22;6202733;28;20234;-69
2022/07/22 03:32:49;;;;;;;3.33;2.60;;;;;;;18.16;78.06;101716.13;6198602;28;20226;-68
2022/07/22 03:36:12;;;;;;;6.65;3.10;;;;;;;18.04;78.90;101711.13;6189558;28;20233;-69
2022/07/22 03:39:40;;;;;;;10.18;4.70;;;;;;;18.12;79.50;101719.34;6186576;28;20300;-68
2022/07/22 03:43:01;;;;;;;5.43;3.35;;;;;;;18.09;79.02;101717.81;6202873;28;20335;-69
2022/07/22 03:46:22;;;;;;;5.82;2.75;;;;;;;17.83;79.09;101721.59;6190145;28;20324;-69
2022/07/22 03:49:44;;;;;;;7.25;3.60;;;;;;;17.70;79.71;101721.19;6190549;28;20234;-68
2022/07/22 03:53:09;;;;;;;5.43;2.40;;;;;;;17.89;78.81;101716.34;6204472;28;20230;-68
2022/07/22 03:56:33;;;;;;;4.82;2.85;;;;;;;18.08;77.86;101716.09;6196759;28;20304;-68
2022/07/22 03:59:54;;;;;;;4.53;3.13;;;;;;;18.07;78.34;101724.44;6189733;28;20249;-68
2022/07/22 04:03:15;;;;;;;7.13;2.50;;;;;;;18.00;77.72;101716.03;6190747;28;20581;-69
2022/07/22 04:06:57;;;;;;;3.97;3.10;;;;;;;18.02;78.07;101714.00;6185560;28;20312;-69
2022/07/22 04:10:25;;;;;;;10.07;4.30;;;;;;;18.07;78.66;101713.53;6206351;28;20243;-69
2022/07/22 04:13:50;;;;;;;6.35;3.15;;;;;;;18.21;77.86;101715.66;6184289;28;20516;-69
2022/07/22 04:17:11;;;;;;;3.97;2.75;;;;;;;17.99;78.45;101708.91;6187731;28;20354;-68
2022/07/22 04:20:32;;;;;;;4.80;2.63;;;;;;;18.02;78.62;101713.19;6204618;28;20267;-69
2022/07/22 04:24:16;;;;;;;4.20;2.60;;;;;;;17.78;79.72;101724.81;6190014;28;20592;-68
2022/07/22 04:27:38;;;;;;;7.55;2.45;;;;;;;17.64;80.26;101730.00;6185198;28;20229;-67
2022/07/22 04:31:00;;;;;;;7.40;2.50;;;;;;;17.64;80.26;101738.19;6188509;28;20368;-69
2022/07/22 04:34:21;;;;;;;6.60;2.65;;;;;;;17.74;80.13;101738.94;6202614;28;20230;-67
2022/07/22 04:37:44;;;;;;;6.00;2.25;;;;;;;17.94;78.86;101732.25;6193168;28;20512;-67
2022/07/22 04:41:06;;;;;;;3.42;2.30;;;;;;;17.81;79.32;101742.72;6188652;28;20321;-68
2022/07/22 04:44:29;;;;;;;4.80;3.15;;;;;;;17.64;80.13;101738.19;6196882;28;20234;-68
2022/07/22 04:47:50;;;;;;;5.40;3.53;;;;;;;17.50;81.36;101750.56;6188006;28;20233;-68
2022/07/22 04:51:13;;;;;;;7.35;4.15;;;;;;;17.66;81.27;101741.59;6187315;28;20233;-67
2022/07/22 04:54:37;;;;;;;3.40;1.75;;;;;;;17.86;80.71;101735.75;6202445;28;20222;-67
2022/07/22 04:57:58;;;;;;;2.55;2.00;;;;;;;17.60;82.23;101742.25;6186287;28;20331;-68
2022/07/22 05:01:21;;;;;;;2.67;2.03;;;;;;;17.89;81.75;101743.63;6188479;28;20632;-68
2022/07/22 05:04:44;;;;;;;3.83;2.42;;;;;;;17.58;82.34;101741.56;6187580;28;20238;-67
2022/07/22 05:08:05;;;;;;;7.63;2.95;;;;;;;17.43;81.96;101743.97;6188603;28;20230;-68
2022/07/22 05:11:30;;;;;;;4.07;2.50;;;;;;;17.67;81.87;101741.44;6188463;28;20532;-68
2022/07/22 05:14:51;;;;;;;4.35;2.60;;;;;;;17.80;80.33;101741.00;6201671;28;20320;-68
2022/07/22 05:18:13;;;;;;;4.22;2.70;;;;;;;17.62;80.72;101741.09;6187330;28;20230;-68
2022/07/22 05:21:35;;;;;;;6.25;4.60;;;;;;;17.64;81.34;101755.41;6186074;28;20233;-68
2022/07/22 05:24:57;;;;;;;7.20;2.95;;;;;;;17.86;80.39;101748.53;6200569;28;20748;-68
2022/07/22 05:28:20;;;;;;;5.38;2.95;;;;;;;17.70;80.45;101751.19;6199247;28;20229;-68
2022/07/22 05:31:42;;;;;;;6.45;3.20;;;;;;;17.60;80.85;101759.47;6177213;28;20237;-70
2022/07/22 05:35:05;;;;;;;5.07;3.08;;;;;;;17.53;81.39;101761.97;6188401;28;20230;-69
2022/07/22 05:38:26;;;;;;;4.97;3.10;;;;;;;17.38;82.44;101762.66;6185457;28;20329;-69
2022/07/22 05:41:47;;;;;;;12.55;4.10;;;;;;;17.58;82.30;101761.50;6202247;28;20234;-69
2022/07/22 05:45:09;;;;;;;9.90;4.03;;;;;;;17.52;81.77;101771.16;6200610;28;20233;-68
2022/07/22 05:48:30;;;;;;;10.60;3.67;;;;;;;17.38;81.99;101763.53;6200419;28;20252;-69
2022/07/22 05:51:53;;;;;;;7.28;3.17;;;;;;;17.38;80.82;101766.25;6201242;28;20776;-69
2022/07/22 05:55:14;;;;;;;7.57;4.07;;;;;;;17.64;79.74;101762.72;6184738;28;20276;-70
2022/07/22 05:58:37;;;;;;;6.15;2.95;;;;;;;17.67;79.93;101763.25;6197424;28;20233;-69
2022/07/22 06:01:57;;;;;;;5.50;3.33;;;;;;;17.65;79.32;101773.47;6188336;28;20230;-68
2022/07/22 06:05:36;;;;;;;5.07;2.95;;;;;;;17.46;79.90;101771.78;6185933;28;20229;-69
2022/07/22 06:08:59;;;;;;;6.32;3.58;;;;;;;17.58;78.97;101762.34;6201269;28;20255;-69
2022/07/22 06:12:20;;;;;;;13.30;5.13;;;;;;;17.96;78.24;101765.69;6187231;28;20226;-69
2022/07/22 06:15:42;;;;;;;7.53;3.03;;;;;;;18.02;77.42;101765.03;6197608;28;20254;-68
2022/07/22 06:19:04;;;;;;;7.88;3.85;;;;;;;17.93;77.17;101763.25;6198109;28;20242;-69
2022/07/22 06:22:25;;;;;;;7.75;3.17;;;;;;;17.91;77.50;101760.69;6183860;28;20242;-68
2022/07/22 06:25:47;;;;;;;8.82;3.00;;;;;;;18.01;76.86;101760.56;6184945;28;20238;-69
2022/07/22 06:29:29;;;;;;;6.47;3.35;;;;;;;18.08;76.82;101772.56;6186165;28;20234;-69
2022/07/22 06:32:50;;;;;;;7.18;4.53;;;;;;;17.98;77.47;101771.81;6203773;28;20230;-69
2022/07/22 06:36:11;;;;;;;9.80;3.47;;;;;;;18.05;77.57;101772.88;6191146;28;20278;-69
2022/07/22 06:39:35;;;;;;;10.23;4.70;;;;;;;18.27;77.62;101772.31;6190626;28;20245;-69
2022/07/22 06:43:16;;;;;;;12.02;4.30;;;;;;;18.71;75.23;101776.56;6182245;28;20607;-69
2022/07/22 06:46:56;;;;;;;12.27;4.72;;;;;;;18.49;76.04;101769.00;6189118;28;20233;-69
2022/07/22 06:50:17;;;;;;;10.27;4.28;;;;;;;18.65;74.46;101776.41;6192809;28;20222;-69
2022/07/22 06:53:38;;;;;;;9.63;4.32;;;;;;;18.66;74.54;101775.38;6191708;28;20435;-69
2022/07/22 06:56:59;;;;;;;8.27;3.63;;;;;;;18.51;74.78;101775.16;6190068;28;20233;-69
2022/07/22 07:00:27;;;;;;;7.90;4.03;;;;;;;18.33;75.73;101769.78;6190679;28;20225;-68
2022/07/22 07:04:07;;;;;;;6.53;3.53;;;;;;;18.28;75.25;101774.88;6190462;28;20268;-69
2022/07/22 07:07:29;;;;;;;10.80;4.65;;;;;;;18.72;73.80;101761.03;6189958;28;20320;-69
2022/07/22 07:10:52;;;;;;;9.60;3.78;;;;;;;18.71;73.39;101773.84;6190471;28;20659;-69
2022/07/22 07:14:13;;;;;;;10.32;3.78;;;;;;;18.73;73.82;101781.91;6187572;28;20230;-68
2022/07/22 07:17:36;;;;;;;9.02;4.15;;;;;;;18.64;73.70;101777.41;6188628;28;20325;-69
2022/07/22 07:21:01;;;;;;;8.93;4.15;;;;;;;18.69;73.20;101783.25;6203855;28;20285;-68
2022/07/22 07:24:22;;;;;;;9.27;4.25;;;;;;;18.51;72.85;101787.94;6191235;28;20230;-68
2022/07/22 07:27:44;;;;;;;12.85;4.20;;;;;;;18.78;72.51;101791.28;6190039;28;20237;-69
2022/07/22 07:31:09;;;;;;;7.78;2.85;;;;;;;18.80;72.06;101794.72;6186887;28;20234;-69
2022/07/22 07:34:32;;;;;;;8.82;4.13;;;;;;;18.69;71.60;101796.91;6188050;28;20218;-68
2022/07/22 07:37:53;;;;;;;11.13;4.47;;;;;;;18.77;71.67;101794.19;6203041;28;20706;-69
2022/07/22 07:41:14;;;;;;;8.90;2.78;;;;;;;18.89;71.23;101790.97;6188490;28;20225;-69
2022/07/22 07:44:36;;;;;;;9.48;2.90;;;;;;;18.91;70.54;101790.81;6187998;28;20274;-69
2022/07/22 07:47:58;;;;;;;7.55;2.45;;;;;;;18.81;69.80;101801.91;6188981;28;20815;-68
2022/07/22 07:51:20;;;;;;;12.40;3.28;;;;;;;18.76;69.89;101787.00;6187683;28;20241;-70
2022/07/22 07:54:41;;;;;;;8.27;2.85;;;;;;;18.85;69.42;101795.06;6203250;28;20531;-69
2022/07/22 07:58:02;;;;;;;12.60;3.47;;;;;;;19.02;69.46;101795.97;6187887;28;20321;-69
2022/07/22 08:01:23;;;;;;;6.07;3.47;;;;;;;19.28;69.15;101801.25;6187575;28;20230;-69
2022/07/22 08:04:44;;;;;;;10.18;3.85;;;;;;;19.44;68.73;101802.16;6201488;28;20233;-69
2022/07/22 08:08:11;;;;;;;6.07;2.70;;;;;;;19.03;68.98;101806.72;6188634;28;20286;-70
2022/07/22 08:11:32;;;;;;;9.52;3.50;;;;;;;18.76;70.37;101809.72;6188678;28;20643;-69
2022/07/22 08:15:19;;;;;;;8.77;3.13;;;;;;;18.81;69.38;101818.28;6188148;28;20261;-69
2022/07/22 08:18:49;;;;;;;20.27;4.90;;;;;;;19.01;68.43;101810.63;6202805;28;20257;-69
2022/07/22 08:22:10;;;;;;;6.28;3.13;;;;;;;19.10;68.44;101826.03;6205333;28;20233;-69
2022/07/22 08:25:33;;;;;;;6.60;3.10;;;;;;;19.00;67.93;101828.06;6191169;28;20233;-69
2022/07/22 08:28:54;;;;;;;9.80;3.45;;;;;;;19.40;66.81;101830.03;6185436;28;20230;-69
2022/07/22 08:32:15;;;;;;;6.28;2.50;;;;;;;19.39;64.94;101818.25;6190197;28;20229;-68
2022/07/22 08:35:36;;;;;;;3.60;2.20;;;;;;;19.44;63.11;101829.50;6187748;28;20234;-69
2022/07/22 08:38:57;;;;;;;6.50;3.15;;;;;;;19.36;62.06;101834.97;6201538;28;20229;-69
2022/07/22 08:42:21;;;;;;;6.97;3.53;;;;;;;19.57;63.04;101818.91;6190438;28;20237;-69
2022/07/22 08:45:42;;;;;;;8.13;2.47;;;;;;;19.49;61.94;101823.53;6203270;28;20242;-68
2022/07/22 08:49:06;;;;;;;5.13;2.20;;;;;;;19.52;61.70;101837.75;6199245;28;20544;-69
2022/07/22 08:52:59;;;;;;;7.85;2.55;;;;;;;20.10;61.15;101834.78;6168173;28;20245;-70
2022/07/22 08:56:20;;;;;;;5.63;2.63;;;;;;;19.42;63.44;101833.47;6188528;28;20222;-69
2022/07/22 08:59:54;;;;;;;7.57;3.28;;;;;;;19.54;63.61;101838.44;6188786;28;20249;-68
2022/07/22 09:03:25;;;;;;;4.57;2.53;;;;;;;20.02;61.87;101843.00;6179575;28;20234;-69
2022/07/22 09:06:49;;;;;;;6.05;2.60;;;;;;;20.12;61.66;101840.06;6187562;28;20238;-70
2022/07/22 09:10:13;;;;;;;4.60;2.92;;;;;;;20.43;60.71;101839.16;6189482;28;20233;-68
2022/07/22 09:13:53;;;;;;;5.28;2.20;;;;;;;20.09;61.24;101838.53;6182403;28;20488;-69
2022/07/22 09:17:35;;;;;;;9.55;3.50;;;;;;;20.39;60.32;101843.28;6187456;28;20226;-68
2022/07/22 09:21:17;;;;;;;8.15;2.42;;;;;;;20.18;59.64;101833.88;6188739;28;20229;-69
2022/07/22 09:24:52;;;;;;;4.30;2.17;;;;;;;20.17;58.78;101835.75;6186398;28;20229;-69
2022/07/22 09:28:23;;;;;;;5.03;1.80;;;;;;;21.04;56.09;101837.53;6181961;28;20508;-69
2022/07/22 09:32:04;;;;;;;6.63;1.90;;;;;;;20.65;55.42;101832.88;6183584;28;20225;-69
2022/07/22 09:35:47;;;;;;;11.85;2.58;;;;;;;20.26;57.92;101836.63;6189465;28;20304;-69
2022/07/22 09:39:26;;;;;;;8.85;2.55;;;;;;;20.01;59.22;101841.28;6187990;28;20241;-69
2022/07/22 09:42:50;;;;;;;8.90;3.78;;;;;;;20.17;59.11;101835.75;6200993;28;20226;-68
2022/07/22 09:46:11;;;;;;;11.27;2.47;;;;;;;19.71;60.42;101848.31;6201474;28;20583;-70
2022/07/22 09:49:58;;;;;;;6.97;2.40;;;;;;;19.76;60.79;101859.63;6186768;28;20230;-69
2022/07/22 09:53:43;;;;;;;6.78;2.38;;;;;;;19.96;60.61;101860.13;6187627;28;20233;-69
2022/07/22 09:57:06;;;;;;;4.07;1.95;;;;;;;19.98;60.28;101862.69;6184679;28;20312;-69
2022/07/22 10:00:28;;;;;;;6.13;2.22;;;;;;;20.01;59.98;101865.91;6200800;28;20494;-68
2022/07/22 10:03:53;;;;;;;6.78;1.80;;;;;;;20.50;58.51;101861.22;6198685;28;20230;-68
2022/07/22 10:07:15;;;;;;;3.78;2.58;;;;;;;20.60;56.80;101860.00;6198076;28;20234;-69
2022/07/22 10:10:40;;;;;;;3.72;1.60;;;;;;;20.49;56.34;101856.75;6202835;28;20785;-69
2022/07/22 10:14:02;;;;;;;3.30;1.65;;;;;;;20.68;55.92;101849.00;6198642;28;20234;-68
2022/07/22 10:17:23;;;;;;;7.88;2.92;;;;;;;20.80;55.33;101854.91;6183616;28;20230;-67
2022/07/22 10:20:45;;;;;;;6.15;2.60;;;;;;;20.35;57.10;101855.63;6187443;28;20225;-68
2022/07/22 10:24:09;;;;;;;4.13;1.98;;;;;;;20.32;57.82;101857.84;6188902;28;20233;-68
2022/07/22 10:27:49;;;;;;;5.05;1.80;;;;;;;20.37;57.33;101870.00;6186019;28;20285;-69
2022/07/22 10:31:22;;;;;;;4.68;2.22;;;;;;;20.28;57.33;101871.03;6183410;28;20233;-69
2022/07/22 10:34:44;;;;;;;6.93;2.60;;;;;;;20.23;57.95;101881.69;6186859;28;20237;-69
2022/07/22 10:38:07;;;;;;;3.17;1.40;;;;;;;20.06;59.08;101879.97;6185423;28;20612;-69
2022/07/22 10:41:34;;;;;;;3.83;1.88;;;;;;;20.11;59.00;101874.78;6184549;28;20230;-69
2022/07/22 10:44:57;;;;;;;2.47;1.77;;;;;;;20.22;58.93;101876.34;6186553;28;20221;-68
2022/07/22 10:48:21;;;;;;;8.20;2.65;;;;;;;20.22;58.64;101879.97;6186491;28;20229;-69
2022/07/22 10:52:16;;;;;;;5.60;2.15;;;;;;;20.22;58.23;101868.13;6187647;28;20241;-69
2022/07/22 10:55:38;;;;;;;7.10;2.33;;;;;;;20.56;57.79;101880.56;6185645;28;20319;-69
2022/07/22 10:59:08;;;;;;;7.30;3.45;;;;;;;20.94;57.74;101872.50;6184012;28;20237;-69
2022/07/22 11:02:31;;;;;;;6.97;2.60;;;;;;;20.67;57.68;101887.53;6188861;28;20239;-69
2022/07/22 11:05:52;;;;;;;5.60;1.95;;;;;;;20.82;57.02;101871.22;6178130;28;20234;-69
2022/07/22 11:09:15;;;;;;;7.30;2.22;;;;;;;20.66;57.87;101883.94;6187614;28;20226;-69
2022/07/22 11:12:36;;;;;;;6.22;2.00;;;;;;;20.79;56.98;101868.81;6185855;28;20636;-69
2022/07/22 11:15:57;;;;;;;4.85;2.03;;;;;;;20.67;57.23;101880.16;6183698;28;20250;-69
2022/07/22 11:19:24;;;;;;;2.88;1.55;;;;;;;20.66;57.87;101866.63;6190614;28;20322;-68
2022/07/22 11:22:47;;;;;;;4.38;1.85;;;;;;;21.18;56.55;101875.13;6192537;28;20229;-69
2022/07/22 11:26:11;;;;;;;3.35;1.73;;;;;;;21.34;55.60;101877.81;6187403;28;20245;-69
2022/07/22 11:29:34;;;;;;;4.15;2.00;;;;;;;20.56;56.67;101874.22;6191185;28;20234;-69
2022/07/22 11:32:55;;;;;;;7.13;2.28;;;;;;;20.82;57.10;101876.69;6189542;28;20248;-69
2022/07/22 11:36:18;;;;;;;7.22;3.03;;;;;;;20.83;56.30;101882.00;6189333;28;20237;-69
2022/07/22 11:39:39;;;;;;;6.30;2.40;;;;;;;21.19;55.73;101877.72;6191439;28;20234;-69
2022/07/22 11:43:03;;;;;;;4.20;2.25;;;;;;;21.35;55.67;101877.63;6189698;28;20230;-69
2022/07/22 11:46:25;;;;;;;5.65;1.85;;;;;;;20.98;56.83;101874.72;6189794;28;20241;-69
2022/07/22 11:49:48;;;;;;;5.97;2.67;;;;;;;20.76;57.86;101877.41;6191724;28;20597;-70
2022/07/22 11:53:10;;;;;;;14.07;2.67;;;;;;;20.56;58.03;101879.69;6190782;28;20241;-68
2022/07/22 11:56:32;;;;;;;6.10;2.30;;;;;;;20.56;57.50;101883.31;6191446;28;20237;-68
2022/07/22 11:59:53;;;;;;;6.03;2.08;;;;;;;21.10;55.81;101887.03;6188383;28;20516;-69
2022/07/22 12:03:15;;;;;;;6.32;2.17;;;;;;;20.36;56.31;101868.28;6191263;28;20484;-69
2022/07/22 12:06:39;;;;;;;4.85;2.00;;;;;;;21.07;56.15;101861.84;6187575;28;20233;-69
2022/07/22 12:10:02;;;;;;;8.63;2.33;;;;;;;21.36;54.88;101868.31;6189966;28;20225;-69
2022/07/22 12:13:29;;;;;;;3.80;1.50;;;;;;;21.06;55.51;101873.84;6190178;28;20309;-69
2022/07/22 12:16:55;;;;;;;8.45;2.47;;;;;;;20.90;56.24;101871.16;6187378;28;20226;-68
2022/07/22 12:20:17;;;;;;;6.35;1.92;;;;;;;20.71;56.37;101876.03;6187611;28;20544;-68
2022/07/22 12:23:37;;;;;;;3.92;1.25;;;;;;;20.33;56.61;101879.59;6189201;28;20234;-69
2022/07/22 12:27:01;;;;;;;4.28;1.88;;;;;;;20.20;57.63;101886.63;6189043;28;20233;-69
2022/07/22 12:30:22;;;;;;;5.90;1.92;;;;;;;20.45;56.43;101886.41;6188736;28;20218;-69
2022/07/22 12:33:50;;;;;;;4.35;1.83;;;;;;;20.95;55.36;101872.31;6190452;28;20238;-69
2022/07/22 12:37:19;;;;;;;6.43;1.92;;;;;;;20.90;54.66;101876.66;6188491;28;20225;-70
2022/07/22 12:40:40;;;;;;;4.90;2.17;;;;;;;20.93;55.33;101862.56;6190658;28;20233;-69
2022/07/22 12:44:03;;;;;;;6.72;2.08;;;;;;;21.14;55.09;101869.16;6188158;28;20230;-69
2022/07/22 12:47:43;;;;;;;5.32;2.40;;;;;;;20.82;55.07;101872.03;6187919;28;20237;-69
2022/07/22 12:51:05;;;;;;;5.78;2.40;;;;;;;20.90;54.81;101866.53;6186494;28;20221;-69
2022/07/22 12:54:26;;;;;;;2.42;1.50;;;;;;;21.03;54.97;101860.47;6187732;28;20234;-69
2022/07/22 12:57:47;;;;;;;2.67;1.67;;;;;;;21.36;54.11;101875.72;6187534;28;20627;-68
2022/07/22 13:01:09;;;;;;;5.40;1.92;;;;;;;21.15;53.29;101870.03;6187764;28;20708;-69
2022/07/22 13:04:30;;;;;;;2.65;1.52;;;;;;;21.72;51.35;101870.47;6191094;28;20883;-69
2022/07/22 13:07:53;;;;;;;4.40;1.80;;;;;;;21.34;51.91;101866.81;6185710;28;20238;-69
2022/07/22 13:11:14;;;;;;;6.05;1.85;;;;;;;21.37;51.56;101859.06;6189833;28;20234;-69
2022/07/22 13:14:35;;;;;;;5.68;1.73;;;;;;;21.33;52.57;101860.47;6189070;28;20321;-69
2022/07/22 13:17:58;;;;;;;3.58;1.52;;;;;;;20.99;53.02;101861.84;6184135;28;20229;-69
2022/07/22 13:21:18;;;;;;;3.63;1.48;;;;;;;21.00;52.84;101850.72;6188070;28;20300;-69
2022/07/22 13:24:39;;;;;;;7.75;2.25;;;;;;;21.42;51.83;101855.78;6190030;28;20234;-69
2022/07/22 13:28:00;;;;;;;4.80;2.35;;;;;;;21.92;51.01;101845.09;6185735;28;20234;-69
2022/07/22 13:31:21;;;;;;;4.13;1.80;;;;;;;21.44;51.90;101842.75;6187018;28;20233;-69
2022/07/22 13:34:43;;;;;;;5.30;1.77;;;;;;;21.25;52.50;101837.72;6188488;28;20242;-70
2022/07/22 13:38:04;;;;;;;6.45;1.58;;;;;;;21.05;52.97;101848.31;6189012;28;20321;-69
2022/07/22 13:41:25;;;;;;;2.33;1.70;;;;;;;21.48;53.05;101839.44;6186565;28;20489;-68
2022/07/22 13:44:46;;;;;;;4.78;2.20;;;;;;;22.16;51.15;101842.09;6188923;28;20237;-69
2022/07/22 13:48:07;;;;;;;4.97;1.95;;;;;;;22.18;50.44;101836.41;6184472;28;20250;-69
2022/07/22 13:51:29;;;;;;;6.30;3.40;;;;;;;22.14;50.49;101844.19;6188252;28;20226;-69
2022/07/22 13:54:50;;;;;;;4.15;1.67;;;;;;;21.05;52.68;101845.56;6188414;28;20261;-69
2022/07/22 13:58:12;;;;;;;2.97;1.48;;;;;;;20.87;53.71;101850.44;6184340;28;20233;-69
2022/07/22 14:01:33;;;;;;;3.83;1.70;;;;;;;20.78;54.37;101839.72;6183560;28;20229;-68
2022/07/22 14:04:53;;;;;;;4.28;1.75;;;;;;;20.83;54.05;101848.22;6186401;28;20706;-69
2022/07/22 14:08:16;;;;;;;2.83;1.52;;;;;;;21.05;53.59;101848.31;6186501;28;20253;-69
2022/07/22 14:11:37;;;;;;;3.05;1.50;;;;;;;21.14;53.31;101841.75;6186871;28;20233;-70
2022/07/22 14:14:58;;;;;;;3.05;1.58;;;;;;;22.09;51.22;101838.38;6188361;28;20316;-69
2022/07/22 14:18:19;;;;;;;3.63;1.30;;;;;;;21.68;51.92;101839.78;6187258;28;20221;-69
2022/07/22 14:21:42;;;;;;;6.43;2.13;;;;;;;22.64;49.50;101834.34;6190016;28;20260;-69
2022/07/22 14:25:05;;;;;;;4.35;2.00;;;;;;;21.55;51.54;101839.53;6183298;28;20224;-69
2022/07/22 14:28:26;;;;;;;4.38;1.50;;;;;;;21.01;53.00;101846.06;6191931;28;20226;-70
2022/07/22 14:31:47;;;;;;;3.75;1.75;;;;;;;20.82;54.57;101849.28;6188082;28;20233;-69
2022/07/22 14:35:08;;;;;;;5.60;1.92;;;;;;;20.96;54.55;101843.03;6186902;28;20238;-68
2022/07/22 14:38:29;;;;;;;3.22;1.40;;;;;;;22.42;51.69;101832.53;6185956;28;20261;-69
2022/07/22 14:41:51;;;;;;;4.93;1.83;;;;;;;23.28;50.05;101824.34;6187383;28;20241;-68
2022/07/22 14:45:12;;;;;;;8.18;4.65;;;;;;;23.20;50.07;101835.47;6188447;28;20229;-68
2022/07/22 14:48:33;;;;;;;3.95;2.05;;;;;;;22.70;49.98;101839.94;6186296;28;20221;-68
2022/07/22 14:51:54;;;;;;;3.42;1.80;;;;;;;22.14;51.27;101846.94;6185353;28;20243;-68
2022/07/22 14:55:15;;;;;;;3.85;2.30;;;;;;;21.49;52.75;101848.50;6192091;28;20462;-69
2022/07/22 14:58:37;;;;;;;1.67;1.20;;;;;;;21.67;52.87;101849.06;6188868;28;20348;-69
2022/07/22 15:01:58;;;;;;;4.78;2.15;;;;;;;21.61;52.15;101840.72;6192171;28;20234;-68
2022/07/22 15:05:19;;;;;;;3.65;1.95;;;;;;;21.92;52.30;101834.13;6191639;28;20489;-69
2022/07/22 15:08:40;;;;;;;3.88;1.90;;;;;;;22.06;52.22;101843.41;6188244;28;20238;-69
2022/07/22 15:12:01;;;;;;;4.55;1.92;;;;;;;22.76;50.54;101825.41;6191517;28;20226;-69
2022/07/22 15:15:24;;;;;;;4.07;1.85;;;;;;;23.21;48.79;101818.75;6189755;28;20633;-71
2022/07/22 15:18:45;;;;;;;4.65;1.75;;;;;;;22.70;49.40;101820.69;6191393;28;20494;-69
2022/07/22 15:22:06;;;;;;;2.10;1.50;;;;;;;22.05;50.80;101831.56;6191783;28;20241;-69
2022/07/22 15:25:26;;;;;;;3.97;3.47;;;;;;;22.89;49.93;101817.34;6190250;28;20360;-69
2022/07/22 15:28:48;;;;;;;3.55;1.42;;;;;;;21.91;50.26;101815.06;6189778;28;20234;-68
2022/07/22 15:32:11;;;;;;;3.95;1.52;;;;;;;21.84;50.87;101816.88;6189274;28;20222;-69
2022/07/22 15:35:32;;;;;;;6.70;4.43;;;;;;;22.15;51.07;101817.56;6189715;28;20312;-69
2022/07/22 15:38:54;;;;;;;4.03;1.80;;;;;;;21.84;50.95;101825.94;6189828;28;20612;-69
2022/07/22 15:42:14;;;;;;;2.92;1.83;;;;;;;22.20;51.05;101812.34;6189952;28;20222;-69
2022/07/22 15:45:35;;;;;;;3.55;1.33;;;;;;;22.00;50.02;101814.81;6191296;28;20522;-69